Time;durP1;ratioP1;P1;durP2;ratioP2;P2;SDS_P1;SDS_P2;PMS_P1;PMS_P2;Temp;Humidity;BMP_temperature;BMP_pressure;BME280_temperature;BME280_humidity;BME280_pressure;Samples;Min_cycle;Max_cycle;Signal;HPM_P1;HPM_P2
2024/03/31 00:01:15;;;;;;;36.15;20.30;;;7.80;99.90;;;;;;5025479;28;20154;-81
2024/03/31 00:03:41;;;;;;;33.92;20.05;;;7.80;99.90;;;;;;5004528;28;20029;-81
2024/03/31 00:06:06;;;;;;;34.92;19.85;;;7.90;99.90;;;;;;5031328;28;20468;-80
2024/03/31 00:08:32;;;;;;;30.52;17.90;;;7.90;99.90;;;;;;5039575;28;20021;-81
2024/03/31 00:11:03;;;;;;;26.08;16.80;;;8.00;99.90;;;;;;5030368;28;20030;-80
2024/03/31 00:13:28;;;;;;;29.02;18.27;;;8.00;99.90;;;;;;5031725;28;20477;-81
2024/03/31 00:15:54;;;;;;;27.95;18.40;;;8.00;99.90;;;;;;5029975;28;20084;-81
2024/03/31 00:18:20;;;;;;;30.70;18.70;;;8.10;99.90;;;;;;5025078;28;20511;-82
2024/03/31 00:20:46;;;;;;;25.80;17.10;;;8.10;99.90;;;;;;5026718;28;20489;-83
2024/03/31 00:23:11;;;;;;;25.67;16.75;;;8.20;99.90;;;;;;5030429;28;20074;-87
2024/03/31 00:25:38;;;;;;;26.45;17.15;;;8.20;99.90;;;;;;5037770;28;20040;-87
2024/03/31 00:28:04;;;;;;;24.55;16.05;;;8.20;99.90;;;;;;5033005;28;20078;-86
2024/03/31 00:30:29;;;;;;;24.35;15.23;;;8.20;99.90;;;;;;5045155;28;20032;-89
2024/03/31 00:32:55;;;;;;;24.02;15.52;;;8.30;99.90;;;;;;5038206;28;20626;-89
2024/03/31 00:35:21;;;;;;;23.88;15.55;;;8.30;99.90;;;;;;5031150;28;20122;-82
2024/03/31 00:37:46;;;;;;;18.92;13.70;;;8.30;99.90;;;;;;5033388;28;20032;-82
2024/03/31 00:40:17;;;;;;;23.90;15.60;;;8.30;99.90;;;;;;5027981;28;20021;-81
2024/03/31 00:42:42;;;;;;;21.42;14.93;;;8.40;99.90;;;;;;5012234;28;20029;-82
2024/03/31 00:45:08;;;;;;;23.13;16.63;;;8.40;99.90;;;;;;5030277;28;20030;-83
2024/03/31 00:47:33;;;;;;;20.85;14.77;;;8.40;99.90;;;;;;5032981;28;20022;-79
2024/03/31 00:49:59;;;;;;;18.00;13.10;;;8.50;99.90;;;;;;5037567;28;20071;-79
2024/03/31 00:52:24;;;;;;;20.95;14.40;;;8.50;99.90;;;;;;5035671;28;20416;-79
2024/03/31 00:54:50;;;;;;;20.08;14.77;;;8.50;99.90;;;;;;5023294;28;20049;-79
2024/03/31 00:57:16;;;;;;;23.63;15.80;;;8.50;99.90;;;;;;5045929;28;20127;-79
2024/03/31 00:59:41;;;;;;;22.55;15.25;;;8.50;99.90;;;;;;5034321;28;20071;-79
2024/03/31 01:02:07;;;;;;;21.20;14.73;;;8.50;99.90;;;;;;5033566;28;20029;-79
2024/03/31 01:04:33;;;;;;;20.90;14.68;;;8.50;99.90;;;;;;5015070;28;20113;-79
2024/03/31 01:06:58;;;;;;;20.77;14.90;;;8.50;99.90;;;;;;5034600;28;20053;-79
2024/03/31 01:09:24;;;;;;;23.10;15.15;;;8.50;99.90;;;;;;5024328;28;20041;-79
2024/03/31 01:11:51;;;;;;;22.15;14.32;;;8.50;99.90;;;;;;5029141;28;20041;-79
2024/03/31 01:14:17;;;;;;;22.20;14.93;;;8.60;99.90;;;;;;5011671;28;20098;-79
2024/03/31 01:16:43;;;;;;;22.40;13.50;;;8.60;99.90;;;;;;5027181;28;20029;-82
2024/03/31 01:19:10;;;;;;;22.13;15.18;;;8.60;99.90;;;;;;5030148;28;20513;-81
2024/03/31 01:21:37;;;;;;;20.55;14.73;;;8.60;99.90;;;;;;5035666;28;20030;-83
2024/03/31 01:24:03;;;;;;;22.10;15.70;;;8.60;99.90;;;;;;5021334;28;20508;-82
2024/03/31 01:26:29;;;;;;;20.00;13.70;;;8.60;99.90;;;;;;5038543;28;20060;-82
2024/03/31 01:28:55;;;;;;;19.45;13.23;;;8.60;99.90;;;;;;5034096;28;20053;-82
2024/03/31 01:31:21;;;;;;;22.17;14.73;;;8.60;99.90;;;;;;5026280;28;20034;-82
2024/03/31 01:33:47;;;;;;;18.45;13.25;;;8.60;99.90;;;;;;5030078;28;20022;-82
2024/03/31 01:36:12;;;;;;;20.08;13.73;;;8.50;99.90;;;;;;5013258;28;20082;-82
2024/03/31 01:38:38;;;;;;;20.02;13.68;;;8.50;99.90;;;;;;5031997;28;20094;-82
2024/03/31 01:41:04;;;;;;;19.73;13.90;;;8.50;99.90;;;;;;5044427;28;20114;-82
2024/03/31 01:43:30;;;;;;;18.48;13.27;;;8.50;99.90;;;;;;5029525;28;20030;-82
2024/03/31 01:45:56;;;;;;;23.27;14.02;;;8.40;99.90;;;;;;5010811;28;20021;-82
2024/03/31 01:48:21;;;;;;;21.40;14.35;;;8.40;99.90;;;;;;5043755;28;20106;-80
2024/03/31 01:50:47;;;;;;;26.50;16.20;;;8.30;99.90;;;;;;5027645;28;20026;-80
2024/03/31 01:53:15;;;;;;;20.02;13.65;;;8.20;99.90;;;;;;5032857;28;20095;-80
2024/03/31 01:55:56;;;;;;;25.00;14.18;;;8.20;99.90;;;;;;5034919;28;20038;-81
2024/03/31 01:58:22;;;;;;;21.90;13.80;;;8.20;99.90;;;;;;5023714;28;20393;-81
2024/03/31 02:00:47;;;;;;;21.75;13.50;;;8.10;99.90;;;;;;5034519;28;20037;-81
2024/03/31 02:03:13;;;;;;;25.98;15.35;;;8.10;99.90;;;;;;5026546;28;20021;-82
2024/03/31 02:05:38;;;;;;;24.55;15.57;;;8.10;99.90;;;;;;5029424;28;20026;-83
2024/03/31 02:08:04;;;;;;;23.70;14.85;;;8.10;99.90;;;;;;5008202;28;20040;-83
2024/03/31 02:10:30;;;;;;;25.52;15.57;;;8.10;99.90;;;;;;5040643;28;20041;-82
2024/03/31 02:12:55;;;;;;;27.15;16.58;;;8.20;99.90;;;;;;5027882;28;20054;-82
2024/03/31 02:15:21;;;;;;;25.83;16.17;;;8.20;99.90;;;;;;5028054;28;20108;-82
2024/03/31 02:17:46;;;;;;;25.38;16.02;;;8.20;99.90;;;;;;5035027;28;20087;-84
2024/03/31 02:20:14;;;;;;;26.73;16.02;;;8.20;99.90;;;;;;5034464;28;20032;-84
2024/03/31 02:22:39;;;;;;;28.65;16.70;;;8.20;99.90;;;;;;5029807;28;20398;-86
2024/03/31 02:25:06;;;;;;;30.75;18.58;;;8.20;99.90;;;;;;5014994;28;20017;-86
2024/03/31 02:27:32;;;;;;;30.65;17.45;;;8.20;99.90;;;;;;5031178;28;20439;-86
2024/03/31 02:29:58;;;;;;;26.40;15.93;;;8.20;99.90;;;;;;5025567;28;20021;-83
2024/03/31 02:32:24;;;;;;;32.58;17.27;;;8.20;99.90;;;;;;5041611;28;20033;-83
2024/03/31 02:34:49;;;;;;;28.33;15.93;;;8.20;99.90;;;;;;5025225;28;20026;-81
2024/03/31 02:37:15;;;;;;;29.63;16.80;;;8.20;99.90;;;;;;5031781;28;20644;-80
2024/03/31 02:39:40;;;;;;;28.25;17.05;;;8.10;99.90;;;;;;5038673;28;20030;-80
2024/03/31 02:42:06;;;;;;;25.60;16.55;;;8.10;99.90;;;;;;5028346;28;20081;-80
2024/03/31 02:44:32;;;;;;;27.92;16.50;;;8.10;99.90;;;;;;5026535;28;20029;-80
2024/03/31 02:46:57;;;;;;;27.15;17.15;;;8.10;99.90;;;;;;5032315;28;20037;-80
2024/03/31 02:49:23;;;;;;;29.27;15.77;;;8.10;99.90;;;;;;5031373;28;20030;-80
2024/03/31 02:51:48;;;;;;;28.42;16.10;;;8.10;99.90;;;;;;5032661;28;20045;-83
2024/03/31 02:54:14;;;;;;;33.25;17.30;;;8.10;99.90;;;;;;5030031;28;20029;-83
2024/03/31 02:56:39;;;;;;;29.77;16.05;;;8.10;99.90;;;;;;5037389;28;20048;-83
2024/03/31 02:59:05;;;;;;;26.67;15.85;;;8.10;99.90;;;;;;5036952;28;20041;-83
2024/03/31 03:01:30;;;;;;;29.15;16.10;;;8.10;99.90;;;;;;5037884;28;20472;-84
2024/03/31 03:03:56;;;;;;;28.20;16.35;;;8.10;99.90;;;;;;5030130;28;20036;-83
2024/03/31 03:06:21;;;;;;;23.80;15.13;;;8.10;99.90;;;;;;5029023;28;20057;-82
2024/03/31 03:08:47;;;;;;;25.83;15.25;;;8.10;99.90;;;;;;5029783;28;20029;-82
2024/03/31 03:11:13;;;;;;;26.73;16.55;;;8.10;99.90;;;;;;5030764;28;20123;-81
2024/03/31 03:13:40;;;;;;;24.65;14.80;;;8.00;99.90;;;;;;5035007;28;20029;-81
2024/03/31 03:16:06;;;;;;;25.90;14.80;;;8.10;99.90;;;;;;5031399;28;20045;-82
2024/03/31 03:18:32;;;;;;;24.48;14.95;;;8.00;99.90;;;;;;5027223;28;20076;-82
2024/03/31 03:20:58;;;;;;;23.63;14.65;;;8.00;99.90;;;;;;5028836;28;20064;-82
2024/03/31 03:23:24;;;;;;;21.52;14.35;;;8.00;99.90;;;;;;5038612;28;20119;-82
2024/03/31 03:25:56;;;;;;;24.80;15.02;;;8.00;99.90;;;;;;5034595;28;20031;-82
2024/03/31 03:28:22;;;;;;;25.08;14.25;;;8.00;99.90;;;;;;5040127;28;20104;-83
2024/03/31 03:30:48;;;;;;;25.77;14.48;;;7.90;99.90;;;;;;5030634;28;20160;-82
2024/03/31 03:33:14;;;;;;;20.40;13.27;;;7.90;99.90;;;;;;5030812;28;20100;-84
2024/03/31 03:35:40;;;;;;;22.15;13.13;;;7.90;99.90;;;;;;5031840;28;20033;-84
2024/03/31 03:38:05;;;;;;;22.70;14.15;;;7.90;99.90;;;;;;5031804;28;20026;-84
2024/03/31 03:40:31;;;;;;;20.75;11.07;;;7.90;99.90;;;;;;5037642;28;20034;-84
2024/03/31 03:42:56;;;;;;;17.92;11.93;;;7.80;99.90;;;;;;5032775;28;20064;-82
2024/03/31 03:45:22;;;;;;;18.35;10.43;;;7.80;99.90;;;;;;5027524;28;20044;-82
2024/03/31 03:47:48;;;;;;;18.23;11.48;;;7.80;99.90;;;;;;5037586;28;20551;-82
2024/03/31 03:50:13;;;;;;;19.73;12.18;;;7.80;99.90;;;;;;5013512;28;20072;-83
2024/03/31 03:52:39;;;;;;;17.13;10.88;;;7.80;99.90;;;;;;5024219;28;20132;-82
2024/03/31 03:55:04;;;;;;;18.58;10.63;;;7.80;99.90;;;;;;5009445;28;20049;-82
2024/03/31 03:57:31;;;;;;;14.88;9.80;;;7.80;99.90;;;;;;5017848;28;20107;-82
2024/03/31 03:59:56;;;;;;;18.52;10.80;;;7.80;99.90;;;;;;5012127;28;20454;-82
2024/03/31 04:02:22;;;;;;;16.05;10.90;;;7.80;99.90;;;;;;5012092;28;20124;-84
2024/03/31 04:04:48;;;;;;;14.77;9.55;;;7.80;99.90;;;;;;5015443;28;20478;-83
2024/03/31 04:07:13;;;;;;;15.68;9.73;;;7.80;99.90;;;;;;5025366;28;20052;-82
2024/03/31 04:09:39;;;;;;;15.18;9.52;;;7.80;99.90;;;;;;5016388;28;20032;-83
2024/03/31 04:12:05;;;;;;;14.80;10.23;;;7.80;99.90;;;;;;5013524;28;20029;-82
2024/03/31 04:14:30;;;;;;;14.32;9.30;;;7.80;99.90;;;;;;5013084;28;20021;-83
2024/03/31 04:16:56;;;;;;;16.73;9.82;;;7.90;99.90;;;;;;5009808;28;20509;-83
2024/03/31 04:19:26;;;;;;;14.65;9.35;;;7.90;99.90;;;;;;5009645;28;20032;-82
2024/03/31 04:21:51;;;;;;;17.27;10.25;;;7.90;99.90;;;;;;5013074;28;20113;-82
2024/03/31 04:24:17;;;;;;;13.45;9.63;;;8.00;99.90;;;;;;5011668;28;20050;-83
2024/03/31 04:26:42;;;;;;;14.15;8.77;;;8.00;99.90;;;;;;5000392;28;20105;-82
2024/03/31 04:29:08;;;;;;;12.98;7.78;;;8.00;99.90;;;;;;5009848;28;20571;-82
2024/03/31 04:31:34;;;;;;;10.68;7.47;;;8.10;99.90;;;;;;5009987;28;20397;-82
2024/03/31 04:33:59;;;;;;;11.70;8.40;;;8.10;99.90;;;;;;5009386;28;20045;-82
2024/03/31 04:36:25;;;;;;;13.32;9.25;;;8.10;99.90;;;;;;5010077;28;20053;-81
2024/03/31 04:38:51;;;;;;;12.88;9.52;;;8.10;99.90;;;;;;5007136;28;20018;-81
2024/03/31 04:41:16;;;;;;;12.30;8.68;;;8.10;99.90;;;;;;5012355;28;20030;-81
2024/03/31 04:43:42;;;;;;;13.30;9.15;;;8.10;99.90;;;;;;5012339;28;20137;-82
2024/03/31 04:46:08;;;;;;;13.40;9.30;;;8.10;99.90;;;;;;5009054;28;20033;-82
2024/03/31 04:48:35;;;;;;;13.27;9.75;;;8.10;99.90;;;;;;5009862;28;20057;-84
2024/03/31 04:51:02;;;;;;;13.32;9.02;;;8.10;99.90;;;;;;5012495;28;20030;-84
2024/03/31 04:53:28;;;;;;;15.05;9.45;;;8.10;99.90;;;;;;5031192;28;20075;-85
2024/03/31 04:55:54;;;;;;;13.77;10.05;;;8.10;99.90;;;;;;5022192;28;20428;-85
2024/03/31 04:58:19;;;;;;;12.52;9.35;;;8.10;99.90;;;;;;5036019;28;20061;-86
2024/03/31 05:00:45;;;;;;;16.58;10.80;;;8.20;99.90;;;;;;5031114;28;20031;-83
2024/03/31 05:03:10;;;;;;;16.58;10.93;;;8.20;99.90;;;;;;5029305;28;20469;-83
2024/03/31 05:05:39;;;;;;;16.45;11.30;;;8.10;99.90;;;;;;5028652;28;20087;-82
2024/03/31 05:08:05;;;;;;;21.77;12.93;;;8.10;99.90;;;;;;5020985;28;20033;-85
2024/03/31 05:10:30;;;;;;;15.32;11.52;;;8.10;99.90;;;;;;5026384;28;20114;-83
2024/03/31 05:13:00;;;;;;;18.27;12.50;;;8.10;99.90;;;;;;5023788;28;20033;-81
2024/03/31 05:15:26;;;;;;;17.50;12.43;;;8.10;99.90;;;;;;5027174;28;20029;-81
2024/03/31 05:17:52;;;;;;;18.42;13.23;;;8.10;99.90;;;;;;5003817;28;20033;-82
2024/03/31 05:20:18;;;;;;;17.63;11.95;;;8.10;99.90;;;;;;5033193;28;20100;-82
2024/03/31 05:22:44;;;;;;;19.17;12.82;;;8.10;99.90;;;;;;5037634;28;20108;-82
2024/03/31 05:25:09;;;;;;;19.23;13.27;;;8.10;99.90;;;;;;5032886;28;20440;-80
2024/03/31 05:27:35;;;;;;;16.45;12.00;;;8.00;99.90;;;;;;5037412;28;20121;-81
2024/03/31 05:30:01;;;;;;;16.60;12.00;;;8.00;99.90;;;;;;5027488;28;20078;-82
2024/03/31 05:32:26;;;;;;;20.73;13.50;;;8.10;99.90;;;;;;5021681;28;20100;-80
2024/03/31 05:34:52;;;;;;;19.60;13.88;;;8.00;99.90;;;;;;5027597;28;20026;-82
2024/03/31 05:37:17;;;;;;;19.05;13.23;;;8.00;99.90;;;;;;5028816;28;20490;-80
2024/03/31 05:39:43;;;;;;;19.85;14.02;;;8.00;99.90;;;;;;5021612;28;20071;-81
2024/03/31 05:42:08;;;;;;;22.67;15.45;;;8.00;99.90;;;;;;5020960;28;20038;-80
2024/03/31 05:44:34;;;;;;;18.95;13.13;;;8.00;99.90;;;;;;5026620;28;20026;-81
2024/03/31 05:46:59;;;;;;;21.63;14.90;;;8.00;99.90;;;;;;5022675;28;20044;-81
2024/03/31 05:49:25;;;;;;;20.05;14.25;;;8.00;99.90;;;;;;5028762;28;20095;-82
2024/03/31 05:51:51;;;;;;;22.23;14.77;;;8.00;99.90;;;;;;5029371;28;20045;-80
2024/03/31 05:54:16;;;;;;;19.25;13.05;;;8.00;99.90;;;;;;5023037;28;20055;-81
2024/03/31 05:56:42;;;;;;;26.55;16.80;;;8.00;99.90;;;;;;5032038;28;20029;-80
2024/03/31 05:59:07;;;;;;;23.20;15.10;;;8.00;99.90;;;;;;5031394;28;20021;-82
2024/03/31 06:01:33;;;;;;;23.15;15.32;;;8.00;99.90;;;;;;5026393;28;20044;-82
2024/03/31 06:03:58;;;;;;;22.45;15.00;;;8.00;99.90;;;;;;5015163;28;20045;-80
2024/03/31 06:06:24;;;;;;;23.00;15.50;;;8.10;99.90;;;;;;5020230;28;20511;-81
2024/03/31 06:08:50;;;;;;;23.65;16.85;;;8.10;99.90;;;;;;5015302;28;20030;-82
2024/03/31 06:11:15;;;;;;;23.33;16.40;;;8.10;99.90;;;;;;5024320;28;20418;-80
2024/03/31 06:13:41;;;;;;;23.80;16.30;;;8.10;99.90;;;;;;5030164;28;20096;-81
2024/03/31 06:16:06;;;;;;;25.70;17.23;;;8.10;99.90;;;;;;5027718;28;20037;-81
2024/03/31 06:18:32;;;;;;;24.45;16.92;;;8.20;99.90;;;;;;5028925;28;20491;-81
2024/03/31 06:21:04;;;;;;;28.60;19.25;;;8.20;99.90;;;;;;5030059;28;20446;-80
2024/03/31 06:23:29;;;;;;;29.92;19.08;;;8.30;99.90;;;;;;5016895;28;20040;-81
2024/03/31 06:25:56;;;;;;;30.02;19.55;;;8.30;99.90;;;;;;5039701;28;20115;-82
2024/03/31 06:28:22;;;;;;;30.50;20.02;;;8.40;99.90;;;;;;5037957;28;20117;-80
2024/03/31 06:30:47;;;;;;;26.35;17.02;;;8.40;99.90;;;;;;5025455;28;20108;-84
2024/03/31 06:33:13;;;;;;;31.83;18.95;;;8.50;99.90;;;;;;5015329;28;20025;-82
2024/03/31 06:35:40;;;;;;;27.73;18.50;;;8.60;99.90;;;;;;5039169;28;20083;-83
2024/03/31 06:38:05;;;;;;;27.15;18.25;;;8.70;99.90;;;;;;5049888;28;20033;-83
2024/03/31 06:40:33;;;;;;;34.55;21.40;;;8.80;99.90;;;;;;5029840;28;20100;-83
2024/03/31 06:42:59;;;;;;;32.58;20.13;;;8.80;99.90;;;;;;5028750;28;20041;-82
2024/03/31 06:45:24;;;;;;;33.28;20.48;;;8.90;99.90;;;;;;5035032;28;20389;-82
2024/03/31 06:47:50;;;;;;;36.65;22.33;;;8.90;99.90;;;;;;5039658;28;20029;-88
2024/03/31 06:50:15;;;;;;;33.72;22.05;;;8.90;99.90;;;;;;5028508;28;20030;-80
2024/03/31 06:52:41;;;;;;;32.85;21.48;;;9.00;99.90;;;;;;5014872;28;20050;-80
2024/03/31 06:55:07;;;;;;;39.88;24.20;;;9.00;99.90;;;;;;5018698;28;20101;-80
2024/03/31 06:57:32;;;;;;;37.05;24.60;;;9.10;99.90;;;;;;5028333;28;20524;-81
2024/03/31 06:59:58;;;;;;;44.70;27.33;;;9.10;99.90;;;;;;5014048;28;20030;-81
2024/03/31 07:02:23;;;;;;;41.65;25.33;;;9.10;99.90;;;;;;5027781;28;20034;-81
2024/03/31 07:04:49;;;;;;;41.58;26.77;;;9.10;99.90;;;;;;5008531;28;20507;-81
2024/03/31 07:07:14;;;;;;;42.85;26.85;;;9.20;99.90;;;;;;5010397;28;20041;-80
2024/03/31 07:09:40;;;;;;;43.10;27.10;;;9.20;99.90;;;;;;5010000;28;20033;-81
2024/03/31 07:12:06;;;;;;;44.45;29.02;;;9.30;99.90;;;;;;5008328;28;20370;-81
2024/03/31 07:14:31;;;;;;;48.92;30.25;;;9.40;99.90;;;;;;5008654;28;20026;-81
2024/03/31 07:16:58;;;;;;;44.53;27.08;;;9.40;99.90;;;;;;5008488;28;20045;-81
2024/03/31 07:19:24;;;;;;;47.90;30.10;;;9.40;99.90;;;;;;5009420;28;20105;-82
2024/03/31 07:21:50;;;;;;;47.63;29.67;;;9.50;99.90;;;;;;5016870;28;20113;-82
2024/03/31 07:24:15;;;;;;;41.65;28.10;;;9.60;99.90;;;;;;5009159;28;20040;-80
2024/03/31 07:26:41;;;;;;;40.20;27.42;;;9.60;99.90;;;;;;5008543;28;20408;-81
2024/03/31 07:29:07;;;;;;;48.10;31.15;;;9.60;99.90;;;;;;4993979;28;21685;-82
2024/03/31 07:31:32;;;;;;;46.22;29.55;;;9.70;99.90;;;;;;5008287;28;20391;-82
2024/03/31 07:33:59;;;;;;;44.50;29.25;;;9.70;99.90;;;;;;5006134;28;20037;-81
2024/03/31 07:36:26;;;;;;;47.92;30.25;;;9.70;99.90;;;;;;5008904;28;20132;-81
2024/03/31 07:38:51;;;;;;;42.85;27.52;;;9.70;99.90;;;;;;5010625;28;20029;-82
2024/03/31 07:41:17;;;;;;;49.00;30.90;;;9.70;99.90;;;;;;5014017;28;20404;-81
2024/03/31 07:43:42;;;;;;;44.17;30.50;;;9.90;99.90;;;;;;5004279;28;20033;-81
2024/03/31 07:46:13;;;;;;;45.55;31.52;;;10.10;99.90;;;;;;5003861;28;21547;-82
2024/03/31 07:48:39;;;;;;;42.08;29.30;;;10.20;99.90;;;;;;5010471;28;20034;-81
2024/03/31 07:51:04;;;;;;;46.95;31.67;;;10.40;99.90;;;;;;5006483;28;20436;-82
2024/03/31 07:53:30;;;;;;;42.03;27.85;;;10.50;99.90;;;;;;5015116;28;20054;-81
2024/03/31 07:56:00;;;;;;;48.22;31.48;;;10.60;99.90;;;;;;5007631;28;20128;-82
2024/03/31 07:58:26;;;;;;;44.22;30.30;;;10.70;99.90;;;;;;5022226;28;20041;-82
2024/03/31 08:00:54;;;;;;;47.50;32.17;;;10.70;99.90;;;;;;5009149;28;20037;-82
2024/03/31 08:03:20;;;;;;;47.33;31.88;;;10.60;99.90;;;;;;5036167;28;20104;-81
2024/03/31 08:05:45;;;;;;;48.75;32.50;;;10.60;99.90;;;;;;5017008;28;20211;-82
2024/03/31 08:08:12;;;;;;;48.58;31.25;;;10.70;99.90;;;;;;5009865;28;20092;-82
2024/03/31 08:10:38;;;;;;;49.55;32.42;;;10.80;99.90;;;;;;5009236;28;20620;-82
2024/03/31 08:13:04;;;;;;;45.63;29.80;;;10.90;99.90;;;;;;5010198;28;20048;-81
2024/03/31 08:15:29;;;;;;;45.80;31.05;;;10.90;99.90;;;;;;5009800;28;20025;-81
2024/03/31 08:17:55;;;;;;;47.72;32.25;;;10.90;99.90;;;;;;5011068;28;20816;-82
2024/03/31 08:20:21;;;;;;;47.45;31.15;;;11.00;99.90;;;;;;5013315;28;20026;-81
2024/03/31 08:22:46;;;;;;;44.17;30.83;;;11.00;99.90;;;;;;5011456;28;20041;-81
2024/03/31 08:25:12;;;;;;;50.50;32.53;;;11.10;99.90;;;;;;5010601;28;20030;-82
2024/03/31 08:27:37;;;;;;;45.00;31.27;;;11.10;99.90;;;;;;5011161;28;20034;-81
2024/03/31 08:30:06;;;;;;;45.35;30.38;;;11.20;99.90;;;;;;4994617;28;20029;-82
2024/03/31 08:32:32;;;;;;;43.35;29.80;;;11.30;99.90;;;;;;5007700;28;20088;-81
2024/03/31 08:34:58;;;;;;;40.78;27.17;;;11.40;99.90;;;;;;5008890;28;20042;-80
2024/03/31 08:37:23;;;;;;;43.65;28.42;;;11.50;99.90;;;;;;5008980;28;20556;-82
2024/03/31 08:39:49;;;;;;;43.15;28.45;;;11.70;99.90;;;;;;5011962;28;20034;-81
2024/03/31 08:42:22;;;;;;;39.45;24.80;;;11.80;99.90;;;;;;5006299;28;20441;-82
2024/03/31 08:44:52;;;;;;;41.63;24.55;;;12.00;99.90;;;;;;5010551;28;20033;-82
2024/03/31 08:47:24;;;;;;;36.83;23.48;;;12.20;99.90;;;;;;5010021;28;20081;-81
2024/03/31 08:49:50;;;;;;;33.22;21.73;;;12.20;99.90;;;;;;5009556;28;20506;-82
2024/03/31 08:52:17;;;;;;;32.42;20.35;;;12.30;99.90;;;;;;5010732;28;20089;-80
2024/03/31 08:54:44;;;;;;;31.90;19.42;;;12.30;99.90;;;;;;5020001;28;20033;-82
2024/03/31 08:57:09;;;;;;;30.52;21.15;;;12.30;99.90;;;;;;5011460;28;20049;-81
2024/03/31 08:59:35;;;;;;;33.03;21.20;;;12.30;99.90;;;;;;5011120;28;20369;-82
2024/03/31 09:02:02;;;;;;;31.25;20.38;;;12.40;99.90;;;;;;5010023;28;20034;-82
2024/03/31 09:04:27;;;;;;;34.22;21.52;;;12.50;99.90;;;;;;5012012;28;20041;-82
2024/03/31 09:06:53;;;;;;;33.53;21.40;;;12.50;99.90;;;;;;5010679;28;20029;-82
2024/03/31 09:09:23;;;;;;;31.35;21.13;;;12.70;99.90;;;;;;5013028;28;20030;-82
2024/03/31 09:11:49;;;;;;;29.95;19.25;;;12.90;99.90;;;;;;5011976;28;20033;-81
2024/03/31 09:14:14;;;;;;;31.13;19.02;;;13.00;99.90;;;;;;5012790;28;20077;-81
2024/03/31 09:16:46;;;;;;;27.42;18.70;;;13.20;99.90;;;;;;5011634;28;20473;-82
2024/03/31 09:19:12;;;;;;;27.20;18.55;;;13.30;99.90;;;;;;5014335;28;20029;-82
2024/03/31 09:21:47;;;;;;;24.38;15.85;;;13.40;99.90;;;;;;5011573;28;20123;-82
2024/03/31 09:24:14;;;;;;;26.17;17.27;;;13.50;99.90;;;;;;5012022;28;20022;-82
2024/03/31 09:26:40;;;;;;;24.88;15.15;;;13.60;99.90;;;;;;5013912;28;20037;-82
2024/03/31 09:29:06;;;;;;;24.63;15.73;;;13.70;99.90;;;;;;5011864;28;20038;-82
2024/03/31 09:31:32;;;;;;;23.30;15.77;;;13.70;99.90;;;;;;4998098;28;20465;-84
2024/03/31 09:33:59;;;;;;;22.23;14.43;;;13.80;99.90;;;;;;5006883;28;20032;-84
2024/03/31 09:36:25;;;;;;;22.08;15.23;;;13.90;99.90;;;;;;5007295;28;20568;-84
2024/03/31 09:38:51;;;;;;;23.08;15.15;;;14.10;99.90;;;;;;5006018;28;20490;-83
2024/03/31 09:41:18;;;;;;;20.65;14.00;;;14.20;99.90;;;;;;5017670;28;20068;-83
2024/03/31 09:43:44;;;;;;;19.80;14.35;;;14.40;99.90;;;;;;5006471;28;20140;-82
2024/03/31 09:46:12;;;;;;;23.85;15.95;;;14.60;99.90;;;;;;5011529;28;20583;-83
2024/03/31 09:48:53;;;;;;;21.17;15.38;;;14.60;99.90;;;;;;5009293;28;20576;-84
2024/03/31 09:51:46;;;;;;;28.42;15.55;;;14.70;99.90;;;;;;5003467;23;20053;-91
2024/03/31 09:54:23;;;;;;;23.45;14.75;;;14.80;99.90;;;;;;4983968;28;20037;-89
2024/03/31 09:57:06;;;;;;;24.15;15.73;;;14.90;99.90;;;;;;4996897;28;20042;-90
2024/03/31 09:59:40;;;;;;;20.83;15.27;;;15.00;99.90;;;;;;5000270;28;20534;-90
2024/03/31 10:02:08;;;;;;;22.42;14.43;;;15.10;99.90;;;;;;4984085;28;20064;-89
2024/03/31 10:05:10;;;;;;;17.38;8.25;;;15.10;99.90;;;;;;5000148;28;20096;-90
2024/03/31 10:07:36;;;;;;;16.98;9.32;;;15.10;99.90;;;;;;4983088;28;20065;-90
2024/03/31 10:10:02;;;;;;;34.40;23.40;;;15.10;99.90;;;;;;4981783;28;20034;-85
2024/03/31 10:12:31;;;;;;;21.98;11.57;;;15.30;99.90;;;;;;4994234;28;20102;-91
2024/03/31 10:15:00;;;;;;;14.75;7.97;;;15.40;99.90;;;;;;4984503;28;20201;-89
2024/03/31 10:17:27;;;;;;;15.80;7.82;;;15.50;99.90;;;;;;4998466;28;20041;-89
2024/03/31 10:19:56;;;;;;;13.95;6.45;;;15.60;99.90;;;;;;4995296;28;20026;-90
2024/03/31 10:22:23;;;;;;;11.95;5.65;;;15.70;99.90;;;;;;4984113;28;20037;-90
2024/03/31 10:24:50;;;;;;;11.23;5.22;;;15.60;99.90;;;;;;4985207;28;20038;-90
2024/03/31 10:27:16;;;;;;;12.27;5.18;;;15.60;99.90;;;;;;4997713;28;20034;-89
2024/03/31 10:29:44;;;;;;;11.20;4.40;;;15.70;99.90;;;;;;4982379;28;20033;-90
2024/03/31 10:32:10;;;;;;;12.32;4.43;;;15.70;99.90;;;;;;4997889;28;20045;-88
2024/03/31 10:34:37;;;;;;;13.57;4.15;;;15.70;99.90;;;;;;4977537;28;20034;-91
2024/03/31 10:37:05;;;;;;;11.90;3.65;;;15.80;99.90;;;;;;4992560;28;20046;-90
2024/03/31 10:39:30;;;;;;;14.10;4.28;;;16.00;99.90;;;;;;4977183;28;20029;-90
2024/03/31 10:41:57;;;;;;;14.95;4.40;;;16.20;99.90;;;;;;4994280;28;20037;-91
2024/03/31 10:44:25;;;;;;;9.65;4.00;;;16.30;99.90;;;;;;4975612;28;20037;-89
2024/03/31 10:46:51;;;;;;;12.25;4.60;;;16.20;99.90;;;;;;4979506;28;20095;-90
2024/03/31 10:49:16;;;;;;;10.63;4.03;;;16.20;99.90;;;;;;4989721;28;20037;-90
2024/03/31 10:51:42;;;;;;;12.55;4.40;;;16.30;99.90;;;;;;4978508;28;20038;-90
2024/03/31 10:54:28;;;;;;;11.18;4.95;;;16.40;99.90;;;;;;4982690;28;20879;-90
2024/03/31 10:57:02;;;;;;;13.10;4.25;;;16.60;99.90;;;;;;4981168;28;20416;-91
2024/03/31 10:59:31;;;;;;;14.85;4.05;;;16.80;99.90;;;;;;4994749;28;20029;-90
2024/03/31 11:02:10;;;;;;;9.18;3.15;;;17.00;99.90;;;;;;4982420;28;20556;-90
2024/03/31 11:04:36;;;;;;;14.13;3.70;;;17.10;99.90;;;;;;4997009;28;20094;-88
2024/03/31 11:07:07;;;;;;;12.15;3.28;;;17.00;99.90;;;;;;4985026;28;20113;-89
2024/03/31 11:09:33;;;;;;;9.38;2.00;;;17.00;99.90;;;;;;4981771;28;20033;-88
2024/03/31 11:11:59;;;;;;;13.63;2.42;;;16.90;99.90;;;;;;4988771;28;20034;-89
2024/03/31 11:14:25;;;;;;;8.32;1.92;;;16.90;99.90;;;;;;4993112;28;20123;-90
2024/03/31 11:16:52;;;;;;;10.48;2.17;;;16.80;99.90;;;;;;4990502;28;20045;-89
2024/03/31 11:19:21;;;;;;;5.50;1.38;;;16.90;99.90;;;;;;4989742;28;20092;-89
2024/03/31 11:21:47;;;;;;;8.27;1.23;;;17.00;99.90;;;;;;4983083;28;20030;-88
2024/03/31 11:24:14;;;;;;;8.70;1.05;;;16.90;99.90;;;;;;4987408;28;20062;-91
2024/03/31 11:26:40;;;;;;;7.20;0.88;;;17.00;99.90;;;;;;4984251;28;20034;-88
2024/03/31 11:29:08;;;;;;;15.45;1.60;;;17.10;99.90;;;;;;4981848;28;20497;-89
2024/03/31 11:31:36;;;;;;;10.25;1.95;;;17.10;99.90;;;;;;4983637;28;20025;-89
2024/03/31 11:34:03;;;;;;;9.88;1.45;;;17.20;99.90;;;;;;4999383;28;21036;-89
2024/03/31 11:36:32;;;;;;;12.13;1.20;;;17.30;99.90;;;;;;4985299;28;20125;-89
2024/03/31 11:38:57;;;;;;;10.15;0.80;;;17.30;99.90;;;;;;4983160;28;20033;-90
2024/03/31 11:41:23;;;;;;;6.18;1.08;;;17.20;99.90;;;;;;4987700;28;20030;-90
2024/03/31 11:43:49;;;;;;;8.00;0.77;;;17.20;99.90;;;;;;4987254;28;20478;-90
2024/03/31 11:46:17;;;;;;;13.18;1.50;;;17.20;99.90;;;;;;4982700;28;20034;-89
2024/03/31 11:48:43;;;;;;;6.57;1.13;;;17.10;99.90;;;;;;4981318;28;20046;-89
2024/03/31 11:51:09;;;;;;;11.30;0.70;;;17.10;99.90;;;;;;4983958;28;20050;-90
2024/03/31 11:53:35;;;;;;;13.45;0.90;;;17.20;99.90;;;;;;4999116;28;20022;-89
2024/03/31 11:56:03;;;;;;;10.55;1.05;;;17.40;99.90;;;;;;4993213;28;20046;-90
2024/03/31 11:58:29;;;;;;;5.43;0.60;;;17.70;99.90;;;;;;4996150;28;20710;-90
2024/03/31 12:00:55;;;;;;;8.95;1.65;;;17.90;99.90;;;;;;4996571;28;20096;-89
2024/03/31 12:03:21;;;;;;;7.45;0.60;;;18.10;99.90;;;;;;5011698;28;20036;-90
2024/03/31 12:05:50;;;;;;;7.82;0.60;;;18.30;99.90;;;;;;5000410;28;20030;-89
2024/03/31 12:08:20;;;;;;;11.23;0.80;;;18.50;99.90;;;;;;4997395;28;20101;-90
2024/03/31 12:10:49;;;;;;;7.53;0.95;;;18.60;99.90;;;;;;4997154;28;20041;-90
2024/03/31 12:13:15;;;;;;;7.35;0.60;;;18.60;99.90;;;;;;4995501;28;20037;-90
2024/03/31 12:15:44;;;;;;;6.88;0.55;;;18.50;99.90;;;;;;4993520;28;20030;-92
2024/03/31 12:18:09;;;;;;;9.93;0.45;;;18.40;99.90;;;;;;5007336;28;20042;-91
2024/03/31 12:20:35;;;;;;;6.85;0.35;;;18.30;99.90;;;;;;4989641;28;20032;-91
2024/03/31 12:23:03;;;;;;;9.10;0.95;;;18.20;99.90;;;;;;4995437;28;20036;-90
2024/03/31 12:25:31;;;;;;;9.05;0.50;;;18.20;99.90;;;;;;4989346;28;20112;-89
2024/03/31 12:27:57;;;;;;;9.60;1.52;;;18.10;99.90;;;;;;4989913;28;20038;-91
2024/03/31 12:30:24;;;;;;;6.03;0.40;;;18.00;99.90;;;;;;4989673;28;20113;-91
2024/03/31 12:32:50;;;;;;;7.90;0.88;;;17.90;99.90;;;;;;4992311;28;20037;-92